createdAt,value
2018-10-05T07:49:27.962Z,5
2018-10-05T07:54:30.409Z,5
2018-10-05T07:59:32.847Z,5
2018-10-05T08:04:35.417Z,5
2018-10-05T08:09:37.787Z,5
2018-10-05T08:14:40.267Z,5
2018-10-05T08:19:42.697Z,4
2018-10-05T08:24:45.133Z,5
2018-10-05T08:29:47.593Z,5
2018-10-05T08:34:50.159Z,4
2018-10-05T08:39:52.602Z,6
2018-10-05T08:44:54.969Z,5
2018-10-05T08:49:57.468Z,5
2018-10-05T08:54:59.915Z,4
2018-10-05T09:00:07.694Z,4
2018-10-05T09:05:04.806Z,4
2018-10-05T09:10:07.307Z,5
2018-10-05T09:15:09.779Z,4
2018-10-05T09:20:12.189Z,5
2018-10-05T09:25:14.637Z,5
2018-10-05T09:30:17.135Z,3
2018-10-05T09:35:19.811Z,3
2018-10-05T09:40:22.028Z,3
2018-10-05T09:45:24.586Z,3
2018-10-05T09:50:27.033Z,4
2018-10-05T09:55:29.399Z,3
2018-10-05T10:00:31.889Z,3
2018-10-05T10:05:34.338Z,4
2018-10-05T10:10:36.790Z,2
2018-10-05T10:15:39.256Z,2
2018-10-05T10:20:41.678Z,2
2018-10-05T10:25:44.150Z,2
2018-10-05T10:30:46.593Z,3
2018-10-05T10:35:49.074Z,2
2018-10-05T10:40:51.537Z,2
2018-10-05T10:45:53.963Z,3
2018-10-05T10:50:56.439Z,2
2018-10-05T10:55:59.163Z,3
2018-10-05T11:01:01.348Z,2
2018-10-05T11:06:03.810Z,3
2018-10-05T11:11:06.297Z,2
2018-10-05T11:16:08.716Z,2
2018-10-05T11:21:11.271Z,2
2018-10-05T11:26:13.725Z,3
2018-10-05T11:31:16.112Z,3
2018-10-05T11:41:21.025Z,2
2018-10-05T11:46:23.520Z,4
2018-10-05T11:51:25.928Z,2
2018-10-05T11:56:28.419Z,2
2018-10-05T12:01:30.860Z,2
2018-10-05T12:06:33.310Z,3
2018-10-05T12:11:35.755Z,3
2018-10-05T12:16:38.243Z,3
2018-10-05T12:21:40.761Z,3
2018-10-05T12:26:43.243Z,2
2018-10-05T12:31:45.593Z,2
2018-10-05T12:36:48.047Z,3
2018-10-05T12:41:50.555Z,3
2018-10-05T12:46:52.959Z,3
2018-10-05T12:51:55.425Z,3
2018-10-05T12:56:57.875Z,2
2018-10-05T13:02:00.343Z,3
2018-10-05T13:07:02.803Z,3
2018-10-05T13:12:05.343Z,3
2018-10-05T13:17:07.723Z,3
2018-10-05T13:22:10.175Z,3
2018-10-05T13:27:12.626Z,3
2018-10-05T13:32:15.083Z,4
2018-10-05T13:37:17.629Z,4
2018-10-05T13:42:20.006Z,4
2018-10-05T13:47:22.465Z,3
2018-10-05T13:52:24.915Z,3
2018-10-05T13:57:27.388Z,4
2018-10-05T14:02:29.898Z,4
2018-10-05T14:07:32.305Z,4
2018-10-05T14:12:34.762Z,4
2018-10-05T14:17:37.206Z,4
2018-10-05T14:22:39.688Z,4
2018-10-05T14:27:42.137Z,4
2018-10-05T14:32:44.589Z,5
2018-10-05T14:37:47.054Z,5
2018-10-05T14:42:49.508Z,5
2018-10-05T14:47:51.958Z,5
2018-10-05T14:52:54.423Z,4
2018-10-05T14:57:56.966Z,5
2018-10-05T15:02:59.362Z,5
2018-10-05T15:08:01.837Z,6
2018-10-05T15:13:04.304Z,6
2018-10-05T15:18:06.722Z,5
2018-10-05T15:23:09.176Z,5
2018-10-05T15:28:11.643Z,5
2018-10-05T15:33:14.096Z,7
2018-10-05T15:38:16.533Z,6
2018-10-05T15:43:18.999Z,6
2018-10-05T15:48:21.540Z,5
2018-10-05T15:53:24.029Z,6
2018-10-05T15:58:26.384Z,5
2018-10-05T16:03:28.842Z,5
2018-10-05T16:08:31.293Z,6
2018-10-05T16:13:33.751Z,6
2018-10-05T16:18:36.229Z,6
2018-10-05T16:23:38.717Z,6
2018-10-05T16:28:41.129Z,6
2018-10-05T16:33:43.593Z,6
2018-10-05T16:38:46.064Z,6
2018-10-05T16:43:48.557Z,6
2018-10-05T16:48:50.979Z,7
2018-10-05T16:53:53.413Z,7
2018-10-05T16:58:55.927Z,7
2018-10-05T17:03:58.422Z,6
2018-10-05T17:09:00.796Z,7
2018-10-05T17:14:03.290Z,7
2018-10-05T17:19:05.702Z,7
2018-10-05T17:24:08.183Z,9
2018-10-05T17:29:10.671Z,10
2018-10-05T17:34:13.082Z,9
2018-10-05T17:39:15.549Z,9
2018-10-05T17:44:17.989Z,9
2018-10-05T17:49:20.460Z,9
2018-10-05T17:54:22.910Z,10
2018-10-05T17:59:25.362Z,9
2018-10-05T18:04:27.839Z,9
2018-10-05T18:09:30.284Z,10
2018-10-05T18:14:32.750Z,10
2018-10-05T18:19:35.261Z,9
2018-10-05T18:24:37.697Z,9
2018-10-05T18:29:40.142Z,10
2018-10-05T18:34:42.595Z,10
2018-10-05T18:39:45.033Z,9
2018-10-05T18:44:47.490Z,9
2018-10-05T18:49:49.947Z,10
2018-10-05T18:54:52.401Z,14
2018-10-05T18:59:54.867Z,8
2018-10-05T19:04:57.309Z,11
2018-10-05T19:09:59.795Z,9
2018-10-05T19:15:02.268Z,11
2018-10-05T19:20:04.719Z,12
2018-10-05T19:25:07.176Z,13
2018-10-05T19:30:09.618Z,12
2018-10-05T19:35:12.065Z,11
2018-10-05T19:40:14.540Z,10
2018-10-05T19:45:16.982Z,10
2018-10-05T19:50:19.424Z,15
2018-10-05T19:55:22.002Z,13
2018-10-05T20:00:24.397Z,18
2018-10-05T20:05:26.808Z,13
2018-10-05T20:10:29.258Z,12
2018-10-05T20:15:31.753Z,10
2018-10-05T20:20:34.246Z,10
2018-10-05T20:25:36.649Z,10
2018-10-05T20:30:39.113Z,8
2018-10-05T20:35:41.608Z,8
2018-10-05T20:40:44.010Z,6
2018-10-05T20:45:46.478Z,6
2018-10-05T20:50:48.929Z,6
2018-10-05T20:55:51.380Z,7
2018-10-05T21:00:53.852Z,7
2018-10-05T21:05:56.295Z,8
2018-10-05T21:10:58.757Z,7
2018-10-05T21:16:01.212Z,8
2018-10-05T21:21:03.679Z,8
2018-10-05T21:26:06.131Z,13
2018-10-05T21:31:08.589Z,10
2018-10-05T21:36:11.055Z,10
2018-10-05T21:41:13.501Z,8
2018-10-05T21:46:15.981Z,8
2018-10-05T21:51:18.444Z,7
2018-10-05T21:56:20.887Z,7
2018-10-05T22:01:23.372Z,7
2018-10-05T22:06:25.802Z,6
2018-10-05T22:11:28.254Z,7
2018-10-05T22:16:30.727Z,7
2018-10-05T22:21:33.173Z,6
2018-10-05T22:26:35.649Z,8
2018-10-05T22:31:38.123Z,8
2018-10-05T22:36:40.549Z,8
2018-10-05T22:41:42.998Z,7
2018-10-05T22:46:45.459Z,6
2018-10-05T22:51:47.897Z,9
2018-10-05T22:56:50.365Z,8
2018-10-05T23:01:52.846Z,9
2018-10-05T23:06:55.292Z,8
2018-10-05T23:11:57.737Z,9
2018-10-05T23:17:00.220Z,9
2018-10-05T23:22:02.667Z,11
2018-10-05T23:27:05.111Z,10
2018-10-05T23:32:07.579Z,9
2018-10-05T23:37:10.040Z,8
2018-10-05T23:42:12.496Z,11
2018-10-05T23:47:14.955Z,11
2018-10-05T23:52:17.449Z,10
2018-10-05T23:57:19.876Z,10
